Flora, Illinois
Current Conditions -  °F | °C
As of 9:55 PM on Thursday 27 Nov 2014 (Local Time) from KFOA Reporting Station
Haze Haze  
Wind Chill: 16°   Ceiling: Unl
Heat Index: 16°   Visibility: 5mi
Dew Point: 15°   Wind: 0mph
Humidity: 97%   Direction: NA
Pressure: 30.46"   Gusts: NA
Location:  38.67°N, 88.49°W
Report Text: KFOA 280355Z AUTO 00000KT 5SM BR CLR M09/M09 A3046 RMK AO2 T10881092
Loading
Personal Weather Stations






























Interactive Weather Map New forecast layout! Learn more

10-Day Weather Forecast

Advertisements
Track Severe Weather on mobile